Time;durP1;ratioP1;P1;durP2;ratioP2;P2;SDS_P1;SDS_P2;PMS_P1;PMS_P2;Temp;Humidity;BMP_temperature;BMP_pressure;BME280_temperature;BME280_humidity;BME280_pressure;Samples;Min_cycle;Max_cycle;Signal;HPM_P1;HPM_P2
2023/06/12 00:00:51;;;;;;;74.60;12.00;;;20.80;1.00;;;;;;5076205;28;20153;-79
2023/06/12 00:03:19;;;;;;;72.80;11.90;;;20.70;1.00;;;;;;5076228;28;20387;-79
2023/06/12 00:05:45;;;;;;;71.80;10.97;;;20.70;1.00;;;;;;5076378;28;20872;-79
2023/06/12 00:08:20;;;;;;;73.37;11.33;;;20.70;1.00;;;;;;5076002;28;20418;-78
2023/06/12 00:10:47;;;;;;;73.37;12.90;;;20.60;1.00;;;;;;5058463;28;20880;-78
2023/06/12 00:13:13;;;;;;;72.87;12.03;;;20.50;1.00;;;;;;5076541;28;20878;-78
2023/06/12 00:15:39;;;;;;;72.33;11.67;;;20.40;1.00;;;;;;5075620;28;20499;-78
2023/06/12 00:18:05;;;;;;;73.70;11.30;;;20.40;1.00;;;;;;5075934;28;20851;-79
2023/06/12 00:20:31;;;;;;;73.00;9.53;;;20.30;1.00;;;;;;5076049;28;20164;-78
2023/06/12 00:22:58;;;;;;;73.40;8.77;;;20.20;1.00;;;;;;5075578;28;20907;-78
2023/06/12 00:25:25;;;;;;;72.40;8.83;;;20.10;1.00;;;;;;5075640;28;20403;-78
2023/06/12 00:27:50;;;;;;;74.77;7.90;;;20.10;1.00;;;;;;5057605;28;20439;-78
2023/06/12 00:30:16;;;;;;;71.70;8.07;;;20.10;1.00;;;;;;5057653;28;20413;-79
2023/06/12 00:32:42;;;;;;;70.60;7.40;;;20.00;1.00;;;;;;5075708;28;20205;-78
2023/06/12 00:35:08;;;;;;;69.90;6.60;;;19.90;1.00;;;;;;5075547;28;20232;-78
2023/06/12 00:37:34;;;;;;;73.50;7.17;;;19.80;1.00;;;;;;5075358;28;20266;-78
2023/06/12 00:40:00;;;;;;;71.80;7.23;;;19.70;1.00;;;;;;5075475;28;20400;-78
2023/06/12 00:42:41;;;;;;;72.73;7.20;;;19.70;1.00;;;;;;5075060;28;20637;-78
2023/06/12 00:45:08;;;;;;;71.53;7.33;;;19.60;1.00;;;;;;5057464;28;20417;-79
2023/06/12 00:47:37;;;;;;;72.70;8.87;;;19.50;1.00;;;;;;5075826;28;20430;-78
2023/06/12 00:50:04;;;;;;;70.13;7.50;;;19.50;1.00;;;;;;5075274;28;20925;-78
2023/06/12 00:52:34;;;;;;;70.00;7.30;;;19.40;1.00;;;;;;5075240;28;20399;-78
2023/06/12 00:55:01;;;;;;;70.07;8.57;;;19.30;1.00;;;;;;5075033;28;20512;-78
2023/06/12 00:57:27;;;;;;;72.67;10.50;;;19.20;1.00;;;;;;5056811;28;20461;-78
2023/06/12 00:59:53;;;;;;;71.40;9.00;;;19.10;1.00;;;;;;5057032;28;20402;-78
2023/06/12 01:02:21;;;;;;;71.00;8.87;;;19.10;1.00;;;;;;5074903;28;20427;-78
2023/06/12 01:04:49;;;;;;;70.07;8.93;;;19.20;1.00;;;;;;5056852;28;20411;-78
2023/06/12 01:07:34;;;;;;;73.50;10.47;;;19.10;1.00;;;;;;5074910;28;20422;-78
2023/06/12 01:10:21;;;;;;;70.97;11.47;;;19.00;1.00;;;;;;5074869;28;20732;-78
2023/06/12 01:12:50;;;;;;;72.00;10.93;;;18.90;4.80;;;;;;5075086;28;20386;-78
2023/06/12 01:15:16;;;;;;;72.80;13.20;;;18.90;5.30;;;;;;5074681;28;20914;-78
2023/06/12 01:17:42;;;;;;;71.97;12.27;;;18.90;8.00;;;;;;5074519;28;20450;-78
2023/06/12 01:20:11;;;;;;;73.57;12.60;;;18.90;9.40;;;;;;5075004;28;20191;-78
2023/06/12 01:22:52;;;;;;;72.20;12.30;;;18.80;8.30;;;;;;5056368;28;20167;-78
2023/06/12 01:25:39;;;;;;;72.37;15.17;;;18.80;9.20;;;;;;5074697;28;20450;-78
2023/06/12 01:28:43;;;;;;;80.60;15.10;;;18.70;10.70;;;;;;5056527;28;20781;-78
2023/06/12 01:31:34;;;;;;;74.20;14.53;;;18.60;10.80;;;;;;5074674;28;20766;-78
2023/06/12 01:34:21;;;;;;;72.27;14.07;;;18.60;9.80;;;;;;5074722;28;20380;-78
2023/06/12 01:36:57;;;;;;;73.10;15.07;;;18.50;13.80;;;;;;5056348;28;20428;-78
2023/06/12 01:39:26;;;;;;;72.67;15.30;;;18.40;15.70;;;;;;5074675;28;20386;-78
2023/06/12 01:41:53;;;;;;;72.40;15.10;;;18.30;17.60;;;;;;5074220;28;20482;-78
2023/06/12 01:44:21;;;;;;;72.47;14.67;;;18.30;17.50;;;;;;5074105;28;20410;-78
2023/06/12 01:46:47;;;;;;;73.80;16.07;;;18.30;16.50;;;;;;5074120;28;20430;-78
2023/06/12 01:49:12;;;;;;;73.17;15.00;;;18.30;12.80;;;;;;5074375;28;20398;-78
2023/06/12 01:51:38;;;;;;;72.57;14.13;;;18.20;15.90;;;;;;5074061;28;20257;-78
2023/06/12 01:54:04;;;;;;;74.40;16.67;;;18.10;17.80;;;;;;5056237;28;20176;-78
2023/06/12 01:56:30;;;;;;;74.70;15.10;;;18.20;17.40;;;;;;5073708;28;20688;-78
2023/06/12 01:58:58;;;;;;;74.10;16.47;;;18.20;15.90;;;;;;5056168;28;20169;-78
2023/06/12 02:01:24;;;;;;;75.90;15.20;;;18.00;17.40;;;;;;5073833;28;21069;-78
2023/06/12 02:03:49;;;;;;;72.20;14.50;;;18.00;19.90;;;;;;5074305;28;20430;-78
2023/06/12 02:06:16;;;;;;;74.97;16.57;;;18.00;23.20;;;;;;5055901;28;20353;-78
2023/06/12 02:08:42;;;;;;;74.67;14.60;;;17.90;28.20;;;;;;5073954;28;20169;-78
2023/06/12 02:11:08;;;;;;;74.10;14.70;;;17.80;29.10;;;;;;5055765;28;20498;-78
2023/06/12 02:13:34;;;;;;;74.47;13.60;;;17.80;26.80;;;;;;5074283;28;20438;-78
2023/06/12 02:16:05;;;;;;;70.97;13.00;;;17.80;26.10;;;;;;5073688;28;20532;-78
2023/06/12 02:18:32;;;;;;;73.93;14.03;;;17.80;25.20;;;;;;5055311;28;20187;-78
2023/06/12 02:20:58;;;;;;;72.53;12.40;;;17.80;26.30;;;;;;5073943;28;20482;-78
2023/06/12 02:23:23;;;;;;;71.47;13.07;;;17.70;26.90;;;;;;5073968;28;20437;-78
2023/06/12 02:25:49;;;;;;;75.83;14.27;;;17.60;30.50;;;;;;5055813;28;20199;-78
2023/06/12 02:28:15;;;;;;;72.97;13.07;;;17.60;31.40;;;;;;5073622;28;20190;-78
2023/06/12 02:30:40;;;;;;;74.10;14.87;;;17.60;34.10;;;;;;5073539;28;20164;-78
2023/06/12 02:33:09;;;;;;;71.67;11.67;;;17.60;35.40;;;;;;5073775;28;20234;-78
2023/06/12 02:35:38;;;;;;;70.70;11.47;;;17.60;33.30;;;;;;5055578;28;20260;-78
2023/06/12 02:38:04;;;;;;;72.50;11.43;;;17.60;33.20;;;;;;5073852;28;20430;-78
2023/06/12 02:40:30;;;;;;;72.70;10.87;;;17.70;32.90;;;;;;5055852;28;20406;-78
2023/06/12 02:42:55;;;;;;;72.97;11.50;;;17.70;29.60;;;;;;5073635;28;20402;-78
2023/06/12 02:45:22;;;;;;;72.33;11.07;;;17.70;27.10;;;;;;5074232;28;20285;-78
2023/06/12 02:47:48;;;;;;;70.67;11.47;;;17.70;28.50;;;;;;5073409;28;20184;-78
2023/06/12 02:50:14;;;;;;;71.87;10.53;;;17.60;33.20;;;;;;5074094;28;20404;-78
2023/06/12 02:52:40;;;;;;;72.27;13.30;;;17.60;34.10;;;;;;5073549;28;20164;-78
2023/06/12 02:55:06;;;;;;;79.60;11.87;;;17.50;38.60;;;;;;5073854;28;20445;-78
2023/06/12 02:57:33;;;;;;;76.10;13.80;;;17.40;40.10;;;;;;5055431;28;20203;-78
2023/06/12 02:59:59;;;;;;;73.57;16.27;;;17.30;44.40;;;;;;5055593;28;20403;-78
2023/06/12 03:02:25;;;;;;;73.83;14.07;;;17.20;45.00;;;;;;5073543;28;20422;-78
2023/06/12 03:04:51;;;;;;;75.23;13.07;;;17.20;45.30;;;;;;5073244;28;20441;-78
2023/06/12 03:07:16;;;;;;;70.57;12.07;;;17.30;46.70;;;;;;5073463;28;20422;-78
2023/06/12 03:09:43;;;;;;;74.70;14.10;;;17.30;45.00;;;;;;5073401;28;20168;-78
2023/06/12 03:12:09;;;;;;;77.33;15.47;;;17.20;47.20;;;;;;5055409;28;20455;-78
2023/06/12 03:14:36;;;;;;;73.87;14.70;;;17.20;51.00;;;;;;5055543;28;20972;-78
2023/06/12 03:17:03;;;;;;;74.07;11.93;;;17.20;49.40;;;;;;5055563;28;20422;-78
2023/06/12 03:19:28;;;;;;;72.80;15.23;;;17.20;50.90;;;;;;5073298;28;20535;-78
2023/06/12 03:21:54;;;;;;;75.83;21.77;;;17.10;56.60;;;;;;5073323;28;20424;-78
2023/06/12 03:24:20;;;;;;;75.27;22.23;;;17.00;61.00;;;;;;5073442;28;20524;-78
2023/06/12 03:26:46;;;;;;;77.30;20.70;;;16.90;64.20;;;;;;5055081;28;20510;-78
2023/06/12 03:29:12;;;;;;;81.47;27.83;;;16.90;68.60;;;;;;5055599;28;20460;-78
2023/06/12 03:31:38;;;;;;;78.33;28.03;;;16.90;67.00;;;;;;5058467;28;20406;-78
2023/06/12 03:34:04;;;;;;;75.47;25.63;;;16.90;69.70;;;;;;5077076;28;20517;-78
2023/06/12 03:36:33;;;;;;;77.57;23.50;;;16.90;68.70;;;;;;5059171;28;20501;-78
2023/06/12 03:39:00;;;;;;;76.80;17.57;;;17.00;64.70;;;;;;5058777;28;20921;-78
2023/06/12 03:41:29;;;;;;;76.17;21.43;;;17.00;63.80;;;;;;5076598;28;20406;-78
2023/06/12 03:43:55;;;;;;;77.23;25.40;;;16.90;69.50;;;;;;5076738;28;20398;-78
2023/06/12 03:46:20;;;;;;;77.50;24.27;;;16.90;73.10;;;;;;5076669;28;20410;-78
2023/06/12 03:48:46;;;;;;;76.90;22.70;;;16.90;73.50;;;;;;5076604;28;20174;-78
2023/06/12 03:51:12;;;;;;;75.87;24.20;;;16.80;76.30;;;;;;5076390;28;20164;-79
2023/06/12 03:53:41;;;;;;;77.80;23.00;;;16.80;80.40;;;;;;5058864;28;20168;-78
2023/06/12 03:56:07;;;;;;;74.87;24.00;;;16.80;82.00;;;;;;5076587;28;20446;-78
2023/06/12 03:58:36;;;;;;;75.20;24.30;;;16.80;81.00;;;;;;5164812;22;20528;-84
2023/06/12 04:02:02;;;;;;;73.97;19.77;;;16.80;84.60;;;;;;5057623;28;20406;-84
2023/06/12 04:23:57;;;;;;;75.87;19.73;;;17.10;90.60;;;;;;4826262;29;20417;-84
2023/06/12 04:30:08;;;;;;;73.90;18.77;;;17.20;90.40;;;;;;4670472;26;20465;-84
2023/06/12 04:37:09;;;;;;;75.87;20.70;;;17.60;83.80;;;;;;4940244;29;20459;-84
2023/06/12 04:44:03;;;;;;;72.00;8.73;;;18.60;55.10;;;;;;4940002;29;20408;-84
2023/06/12 04:47:18;;;;;;;;;;;;;;;;;;;;;
2023/06/12 05:00:07;;;;;;;71.60;9.70;;;19.70;17.10;;;;;;5088803;23;20500;-85
2023/06/12 05:08:58;;;;;;;73.20;11.20;;;19.90;1.00;;;;;;4977149;28;20494;-84
2023/06/12 05:11:24;;;;;;;73.60;12.83;;;20.20;1.00;;;;;;5058967;28;20905;-84
2023/06/12 05:13:50;;;;;;;73.40;11.20;;;20.30;1.00;;;;;;5060662;28;20172;-84
2023/06/12 05:16:16;;;;;;;72.57;9.90;;;20.40;1.00;;;;;;5059278;28;20434;-83
2023/06/12 05:18:41;;;;;;;72.70;9.90;;;20.40;1.00;;;;;;5060296;28;20632;-83
2023/06/12 05:21:10;;;;;;;73.80;8.30;;;20.40;1.00;;;;;;5041836;28;20178;-83
2023/06/12 05:23:36;;;;;;;73.87;7.03;;;20.50;1.00;;;;;;5059397;28;20190;-83
2023/06/12 05:26:03;;;;;;;78.10;7.83;;;20.50;1.00;;;;;;5059116;28;20407;-83
2023/06/12 05:28:28;;;;;;;77.83;7.93;;;20.60;1.00;;;;;;5060477;28;20181;-83
2023/06/12 05:30:54;;;;;;;72.93;8.10;;;20.50;1.00;;;;;;5060966;28;20414;-83
2023/06/12 05:33:20;;;;;;;71.80;7.67;;;20.60;1.00;;;;;;5060028;28;20177;-83
2023/06/12 05:35:49;;;;;;;71.47;7.60;;;20.50;1.00;;;;;;5059073;28;20192;-83
2023/06/12 05:38:15;;;;;;;77.70;8.67;;;20.50;1.00;;;;;;5058024;28;20424;-83
2023/06/12 05:40:41;;;;;;;71.63;7.50;;;20.50;1.00;;;;;;5042467;28;20509;-83
2023/06/12 05:43:07;;;;;;;72.97;7.30;;;20.50;1.00;;;;;;5058376;28;20815;-83
2023/06/12 05:45:32;;;;;;;74.30;7.60;;;20.50;1.00;;;;;;5059030;28;20457;-83
2023/06/12 05:48:01;;;;;;;72.10;7.90;;;20.50;1.00;;;;;;5059944;28;20188;-83
2023/06/12 05:50:27;;;;;;;71.20;7.80;;;20.50;1.00;;;;;;5060253;28;20168;-83
2023/06/12 05:52:52;;;;;;;71.87;7.43;;;20.50;1.00;;;;;;5059760;28;20434;-83
2023/06/12 05:55:18;;;;;;;73.67;7.77;;;20.40;1.00;;;;;;5043081;28;20196;-83
2023/06/12 05:57:44;;;;;;;72.60;7.10;;;20.40;1.00;;;;;;5060800;28;20181;-83
2023/06/12 06:00:12;;;;;;;72.10;7.53;;;20.50;1.00;;;;;;5060163;28;20659;-83
2023/06/12 06:02:42;;;;;;;72.33;7.60;;;20.60;1.00;;;;;;5060665;28;20253;-83
2023/06/12 06:05:09;;;;;;;73.37;7.47;;;20.60;1.00;;;;;;5059915;28;20546;-83
2023/06/12 06:07:38;;;;;;;72.37;8.30;;;20.60;1.00;;;;;;5040860;28;20437;-83
2023/06/12 06:10:07;;;;;;;75.00;7.17;;;20.70;1.00;;;;;;5056620;28;20906;-84
2023/06/12 06:12:33;;;;;;;70.70;7.07;;;20.70;1.00;;;;;;5058205;28;20827;-84
2023/06/12 06:14:59;;;;;;;71.80;7.37;;;20.70;1.00;;;;;;5040192;28;20530;-84
2023/06/12 06:17:33;;;;;;;70.87;7.03;;;20.80;1.00;;;;;;5143010;22;20527;-84
2023/06/12 06:19:59;;;;;;;71.50;7.20;;;20.90;1.00;;;;;;5078157;28;20473;-84
2023/06/12 06:22:33;;;;;;;74.47;7.33;;;20.90;1.00;;;;;;5078725;28;20421;-83
2023/06/12 06:25:10;;;;;;;72.40;7.53;;;20.90;1.00;;;;;;5059110;28;20663;-83
2023/06/12 06:28:23;;;;;;;72.17;7.60;;;20.90;1.00;;;;;;5077035;28;20418;-83
2023/06/12 06:31:23;;;;;;;76.60;7.10;;;21.00;1.00;;;;;;5058652;28;20893;-83
2023/06/12 06:33:59;;;;;;;73.50;7.63;;;21.20;1.00;;;;;;5079292;28;20394;-84
2023/06/12 06:36:30;;;;;;;74.67;7.57;;;21.30;1.00;;;;;;5078861;28;21006;-83
2023/06/12 06:39:47;;;;;;;72.67;7.83;;;21.30;1.00;;;;;;5061532;28;20410;-84
2023/06/12 06:42:25;;;;;;;73.03;7.70;;;21.40;1.00;;;;;;5069573;28;20429;-84
2023/06/12 06:44:55;;;;;;;73.40;7.97;;;21.60;1.00;;;;;;5046642;28;20448;-84
2023/06/12 06:47:51;;;;;;;;;;;;;;;;;;;;;
2023/06/12 06:50:54;;;;;;;72.37;7.37;;;21.60;1.00;;;;;;5078022;28;20485;-84
2023/06/12 06:53:35;;;;;;;73.30;7.07;;;21.80;1.00;;;;;;5059806;28;20774;-83
2023/06/12 06:56:35;;;;;;;;;;;;;;;;;;;;;
2023/06/12 06:59:19;;;;;;;72.47;7.60;;;21.90;1.00;;;;;;5077740;28;20489;-84
2023/06/12 07:01:50;;;;;;;71.57;7.83;;;22.10;1.00;;;;;;5077963;28;20452;-84
2023/06/12 07:04:54;;;;;;;73.03;7.63;;;22.10;1.00;;;;;;5079466;28;20406;-83
2023/06/12 07:07:55;;;;;;;75.17;7.53;;;22.10;1.00;;;;;;5007528;28;20521;-83
2023/06/12 07:10:37;;;;;;;72.80;6.83;;;22.10;1.00;;;;;;5062933;28;20418;-84
2023/06/12 07:13:48;;;;;;;73.00;7.27;;;22.20;1.00;;;;;;5082115;28;20370;-84
2023/06/12 07:15:51;;;;;;;74.57;6.73;;;22.30;1.00;;;;;;5071584;28;20457;-84
2023/06/12 07:18:32;;;;;;;71.97;7.53;;;22.40;1.00;;;;;;5082334;28;20448;-84
2023/06/12 07:21:04;;;;;;;71.40;6.60;;;22.50;1.00;;;;;;5082213;28;20402;-84
2023/06/12 07:27:22;;;;;;;71.63;7.23;;;22.60;1.00;;;;;;5021605;28;20417;-84
2023/06/12 07:30:11;;;;;;;;;;;;;;;;;;;;;
2023/06/12 07:33:05;;;;;;;75.83;7.33;;;22.80;1.00;;;;;;5082432;28;20470;-83
2023/06/12 07:35:58;;;;;;;72.73;8.03;;;22.70;1.00;;;;;;5063137;28;20457;-83
2023/06/12 07:38:30;;;;;;;72.60;7.83;;;22.70;1.00;;;;;;5062158;28;20438;-83
2023/06/12 07:41:42;;;;;;;;;;;;;;;;;;;;;
2023/06/12 07:44:40;;;;;;;73.17;7.10;;;22.90;1.00;;;;;;5081971;28;20488;-84
2023/06/12 07:47:36;;;;;;;72.10;6.97;;;23.10;1.00;;;;;;5081040;28;20426;-84
2023/06/12 07:53:24;;;;;;;72.70;6.97;;;23.20;1.00;;;;;;5068570;28;20489;-84
2023/06/12 07:55:53;;;;;;;74.50;7.57;;;23.20;1.00;;;;;;5080652;28;20437;-83
2023/06/12 07:58:28;;;;;;;72.87;7.03;;;23.30;1.00;;;;;;5105394;22;20484;-84
2023/06/12 08:01:24;;;;;;;75.43;7.13;;;23.40;1.00;;;;;;5080940;28;20492;-84
2023/06/12 08:04:25;;;;;;;72.87;6.97;;;23.30;1.00;;;;;;5080644;28;20437;-84
2023/06/12 08:07:15;;;;;;;73.67;6.80;;;23.30;1.00;;;;;;5136029;22;20916;-83
2023/06/12 08:09:41;;;;;;;74.10;7.63;;;23.40;1.00;;;;;;5080869;28;20434;-83
2023/06/12 08:12:15;;;;;;;71.13;7.40;;;23.50;1.00;;;;;;5080994;28;20409;-84
2023/06/12 08:14:47;;;;;;;72.20;7.60;;;23.50;1.00;;;;;;5082444;28;20512;-84
2023/06/12 08:17:17;;;;;;;74.03;7.60;;;23.70;1.00;;;;;;5079774;28;20415;-84
2023/06/12 08:20:01;;;;;;;73.17;7.43;;;23.70;1.00;;;;;;5061089;28;20811;-84
2023/06/12 08:23:16;;;;;;;80.03;7.97;;;23.70;1.00;;;;;;5081519;28;20436;-83
2023/06/12 08:25:47;;;;;;;74.47;6.80;;;23.80;1.00;;;;;;5081807;28;20383;-84
2023/06/12 08:28:28;;;;;;;72.80;7.80;;;23.90;1.00;;;;;;5080901;28;20422;-84
2023/06/12 08:31:12;;;;;;;72.90;7.87;;;24.00;1.00;;;;;;5076400;28;20410;-84
2023/06/12 08:33:41;;;;;;;72.80;7.70;;;23.90;1.00;;;;;;5078193;28;20432;-83
2023/06/12 08:36:23;;;;;;;72.37;7.43;;;23.90;1.00;;;;;;5079046;28;20442;-84
2023/06/12 08:38:59;;;;;;;;;;;;;;;;;;;;;
2023/06/12 08:42:08;;;;;;;71.60;7.37;;;24.20;1.00;;;;;;5080275;28;20509;-84
2023/06/12 08:44:51;;;;;;;73.20;8.13;;;24.30;1.00;;;;;;5061402;28;20409;-84
2023/06/12 08:47:19;;;;;;;72.70;7.47;;;24.50;1.00;;;;;;5062075;28;20770;-83
2023/06/12 08:49:56;;;;;;;71.47;7.17;;;24.70;1.00;;;;;;5079564;28;20442;-84
2023/06/12 08:52:30;;;;;;;71.13;6.93;;;24.80;1.00;;;;;;5079706;28;20386;-84
2023/06/12 08:55:09;;;;;;;72.80;7.73;;;25.00;1.00;;;;;;5079429;28;20430;-84
2023/06/12 08:58:01;;;;;;;70.77;6.60;;;25.00;1.00;;;;;;5080734;28;20486;-84
2023/06/12 09:00:30;;;;;;;74.17;7.70;;;25.10;1.00;;;;;;5072350;28;20481;-84
2023/06/12 09:02:56;;;;;;;71.50;7.60;;;25.30;1.00;;;;;;5080401;28;20869;-84
2023/06/12 09:05:38;;;;;;;71.20;7.50;;;25.30;1.00;;;;;;5062054;28;20498;-84
2023/06/12 09:08:35;;;;;;;72.30;7.60;;;25.40;1.00;;;;;;5080385;28;20443;-84
2023/06/12 09:14:14;;;;;;;73.00;8.40;;;25.50;1.00;;;;;;5080468;28;20422;-83
2023/06/12 09:16:45;;;;;;;73.57;8.97;;;25.60;1.00;;;;;;5079768;28;20421;-83
2023/06/12 09:19:22;;;;;;;73.57;9.03;;;25.70;1.00;;;;;;5079905;28;20487;-83
2023/06/12 09:21:51;;;;;;;76.10;9.40;;;25.90;1.00;;;;;;5062272;28;20405;-83
2023/06/12 09:24:40;;;;;;;75.03;10.63;;;26.00;1.00;;;;;;5079507;28;20399;-84
2023/06/12 09:27:07;;;;;;;73.60;8.83;;;26.10;1.00;;;;;;5042017;28;20429;-83
2023/06/12 09:29:57;;;;;;;72.67;9.20;;;26.10;1.00;;;;;;5080016;28;20401;-83
2023/06/12 09:32:33;;;;;;;73.40;9.37;;;26.40;1.00;;;;;;5079140;28;20513;-83
2023/06/12 09:35:14;;;;;;;77.80;10.70;;;26.50;1.00;;;;;;5079700;28;20455;-83
2023/06/12 09:37:42;;;;;;;74.37;10.90;;;26.60;1.00;;;;;;5079328;28;20445;-83
2023/06/12 09:40:15;;;;;;;72.50;9.90;;;26.70;1.00;;;;;;5079509;28;20401;-83
2023/06/12 09:42:46;;;;;;;72.30;7.70;;;26.90;1.00;;;;;;5079515;28;20398;-83
2023/06/12 09:45:31;;;;;;;72.20;9.63;;;27.10;1.00;;;;;;5080679;28;20436;-83
2023/06/12 09:47:59;;;;;;;71.57;7.17;;;27.20;1.00;;;;;;5079177;28;20429;-83
2023/06/12 09:50:25;;;;;;;72.43;6.87;;;27.50;1.00;;;;;;5079064;28;20426;-83
2023/06/12 09:52:57;;;;;;;72.40;6.60;;;27.70;1.00;;;;;;5080424;28;20405;-83
2023/06/12 09:55:29;;;;;;;71.43;5.90;;;27.90;1.00;;;;;;5079757;28;20418;-83
2023/06/12 09:57:59;;;;;;;72.27;6.60;;;28.00;1.00;;;;;;5065159;23;20498;-78
2023/06/12 10:00:25;;;;;;;72.30;6.90;;;27.80;1.00;;;;;;5055371;28;20457;-79
2023/06/12 10:03:03;;;;;;;73.60;7.10;;;27.80;1.00;;;;;;5037621;28;20423;-79
2023/06/12 10:05:42;;;;;;;75.90;7.27;;;27.80;1.00;;;;;;5038274;28;20419;-78
2023/06/12 10:08:08;;;;;;;71.77;6.87;;;28.00;1.00;;;;;;5055654;28;20943;-80
2023/06/12 10:10:37;;;;;;;74.37;9.90;;;28.30;1.00;;;;;;5055171;28;20475;-78
2023/06/12 10:13:04;;;;;;;74.60;9.60;;;28.30;1.00;;;;;;5055400;28;20399;-78
2023/06/12 10:15:31;;;;;;;73.47;9.17;;;28.40;1.00;;;;;;5055308;28;20431;-79
2023/06/12 10:17:58;;;;;;;71.97;7.63;;;28.30;1.00;;;;;;5055760;28;20419;-79
2023/06/12 10:20:26;;;;;;;74.20;9.63;;;28.50;1.00;;;;;;5055050;28;20925;-79
2023/06/12 10:22:56;;;;;;;73.50;12.90;;;28.70;1.00;;;;;;5055453;28;20415;-80
2023/06/12 10:25:22;;;;;;;74.90;12.53;;;29.00;1.00;;;;;;5037312;28;20418;-78
2023/06/12 10:27:49;;;;;;;75.20;11.57;;;28.80;1.00;;;;;;5055321;28;20419;-79
2023/06/12 10:30:18;;;;;;;75.23;14.90;;;28.80;1.00;;;;;;5037106;28;20496;-80
2023/06/12 10:32:45;;;;;;;77.17;15.33;;;28.80;1.00;;;;;;5055389;28;20894;-79
2023/06/12 10:35:11;;;;;;;78.30;14.73;;;28.80;1.00;;;;;;5037505;28;20493;-78
2023/06/12 10:37:46;;;;;;;74.57;15.00;;;28.90;1.00;;;;;;5055074;28;20437;-79
2023/06/12 10:40:16;;;;;;;74.27;10.30;;;29.10;1.00;;;;;;5039876;28;20521;-79
2023/06/12 10:42:54;;;;;;;72.00;11.13;;;29.20;1.00;;;;;;5058770;28;20407;-79
2023/06/12 10:45:24;;;;;;;73.30;9.30;;;29.20;1.00;;;;;;5041164;28;20922;-79
2023/06/12 10:48:05;;;;;;;73.03;8.60;;;29.40;1.00;;;;;;5058927;28;20498;-79
2023/06/12 10:50:32;;;;;;;76.00;15.80;;;29.60;1.00;;;;;;5058629;28;20398;-80
2023/06/12 10:53:08;;;;;;;72.77;8.73;;;29.90;1.00;;;;;;5040724;28;20505;-79
2023/06/12 10:55:38;;;;;;;71.33;6.37;;;30.20;1.00;;;;;;5058975;28;20434;-79
2023/06/12 10:58:05;;;;;;;72.00;6.40;;;30.20;1.00;;;;;;5040781;28;20484;-79
2023/06/12 11:00:35;;;;;;;70.67;6.10;;;30.00;1.00;;;;;;5058436;28;20493;-79
2023/06/12 11:03:05;;;;;;;71.10;6.00;;;30.50;1.00;;;;;;5041072;28;20391;-80
2023/06/12 11:05:33;;;;;;;71.33;5.80;;;30.90;1.00;;;;;;5041542;28;20434;-80
2023/06/12 11:08:03;;;;;;;71.47;5.53;;;31.30;1.00;;;;;;5058537;28;20462;-79
2023/06/12 11:10:30;;;;;;;70.27;5.20;;;31.20;1.00;;;;;;5058481;28;20461;-80
2023/06/12 11:12:57;;;;;;;72.93;5.40;;;31.00;1.00;;;;;;5040620;28;20404;-80
2023/06/12 11:15:24;;;;;;;72.03;5.73;;;30.70;1.00;;;;;;5040908;28;20492;-79
2023/06/12 11:17:50;;;;;;;73.57;5.90;;;31.00;1.00;;;;;;5058237;28;20460;-79
2023/06/12 11:20:18;;;;;;;74.33;6.30;;;31.40;1.00;;;;;;5058411;28;20873;-79
2023/06/12 11:22:46;;;;;;;72.43;5.97;;;31.70;1.00;;;;;;5058184;28;20391;-80
2023/06/12 11:25:13;;;;;;;70.90;5.50;;;31.60;1.00;;;;;;5040230;28;20415;-79
2023/06/12 11:27:38;;;;;;;72.93;6.00;;;31.30;1.00;;;;;;5057753;28;20430;-79
2023/06/12 11:30:15;;;;;;;71.67;5.60;;;31.40;1.00;;;;;;5057969;28;20403;-79
2023/06/12 11:32:42;;;;;;;70.60;5.60;;;31.60;1.00;;;;;;5058253;28;20184;-79
2023/06/12 11:35:09;;;;;;;71.00;5.90;;;31.40;1.00;;;;;;5040253;28;20498;-79
2023/06/12 11:37:38;;;;;;;72.57;5.67;;;31.70;1.00;;;;;;5039901;28;20430;-79
2023/06/12 11:40:10;;;;;;;73.63;6.23;;;31.80;1.00;;;;;;5040044;28;20817;-79
2023/06/12 11:42:40;;;;;;;75.03;6.33;;;32.00;1.00;;;;;;5058220;28;20731;-79
2023/06/12 11:45:14;;;;;;;73.17;6.00;;;32.20;1.00;;;;;;5057631;28;20403;-80
2023/06/12 11:47:44;;;;;;;71.50;6.50;;;32.40;1.00;;;;;;5039739;28;20999;-80
2023/06/12 11:50:16;;;;;;;71.80;5.93;;;32.90;1.00;;;;;;5057193;28;20387;-80
2023/06/12 11:52:45;;;;;;;70.90;5.67;;;32.10;1.00;;;;;;5057998;28;20843;-80
2023/06/12 11:55:12;;;;;;;80.63;6.67;;;31.40;1.00;;;;;;5039744;28;20478;-80
2023/06/12 11:57:39;;;;;;;72.53;6.10;;;30.90;1.00;;;;;;5058171;28;20445;-80
2023/06/12 12:00:11;;;;;;;70.80;5.30;;;30.60;1.00;;;;;;5040371;28;20414;-79
2023/06/12 12:02:40;;;;;;;70.77;5.30;;;31.00;1.00;;;;;;5040106;28;20419;-80
2023/06/12 12:05:10;;;;;;;71.17;5.70;;;31.50;1.00;;;;;;5041147;28;20435;-79
2023/06/12 12:07:38;;;;;;;72.27;6.10;;;31.10;1.00;;;;;;5040509;28;20439;-80
2023/06/12 12:10:11;;;;;;;74.00;5.53;;;31.20;1.00;;;;;;5040007;28;20418;-80
2023/06/12 12:12:45;;;;;;;71.90;5.30;;;31.90;1.00;;;;;;5057982;28;20403;-79
2023/06/12 12:15:12;;;;;;;72.70;6.40;;;32.20;1.00;;;;;;5039483;28;20791;-80
2023/06/12 12:17:39;;;;;;;72.70;5.67;;;32.30;1.00;;;;;;5057634;28;20831;-79
2023/06/12 12:20:07;;;;;;;70.27;5.57;;;32.10;1.00;;;;;;5057604;28;20403;-79
2023/06/12 12:22:40;;;;;;;72.33;6.20;;;32.10;1.00;;;;;;5039865;28;20408;-80
2023/06/12 12:25:14;;;;;;;72.10;5.70;;;31.80;1.00;;;;;;5040276;28;20435;-79
2023/06/12 12:27:39;;;;;;;73.47;6.17;;;31.90;1.00;;;;;;5059169;28;20461;-79
2023/06/12 12:30:05;;;;;;;71.70;6.37;;;31.30;1.00;;;;;;5040028;28;20412;-79
2023/06/12 12:32:32;;;;;;;71.07;5.43;;;30.60;1.00;;;;;;5039067;28;20173;-80
2023/06/12 12:34:57;;;;;;;70.77;5.20;;;30.90;1.00;;;;;;5056937;28;20438;-78
2023/06/12 12:37:24;;;;;;;72.03;7.00;;;31.40;1.00;;;;;;5057720;28;20914;-80
2023/06/12 12:39:49;;;;;;;72.23;6.30;;;31.50;1.00;;;;;;5039156;28;20536;-80
2023/06/12 12:42:15;;;;;;;75.37;6.17;;;31.60;1.00;;;;;;5039425;28;20403;-80
2023/06/12 12:44:41;;;;;;;71.80;5.50;;;31.40;1.00;;;;;;5057417;28;20161;-80
2023/06/12 12:47:07;;;;;;;75.97;5.87;;;30.10;1.00;;;;;;5056993;28;20595;-79
2023/06/12 12:49:32;;;;;;;73.20;6.50;;;29.70;1.00;;;;;;5056624;28;20165;-80
2023/06/12 12:51:58;;;;;;;71.20;6.03;;;29.90;1.00;;;;;;5039113;28;20218;-80
2023/06/12 12:54:24;;;;;;;70.83;5.00;;;30.20;1.00;;;;;;5056720;28;20160;-80
2023/06/12 12:56:50;;;;;;;71.50;5.40;;;30.70;1.00;;;;;;5056299;28;20192;-79
2023/06/12 12:59:16;;;;;;;70.00;5.00;;;31.10;1.00;;;;;;5038624;28;20453;-80
2023/06/12 13:01:41;;;;;;;72.00;6.17;;;31.40;1.00;;;;;;5055856;28;20164;-79
2023/06/12 13:04:07;;;;;;;76.10;5.80;;;31.80;1.00;;;;;;5056443;28;20168;-79
2023/06/12 13:06:34;;;;;;;71.70;6.53;;;32.00;1.00;;;;;;5056387;28;20256;-79
2023/06/12 13:09:00;;;;;;;74.37;6.10;;;31.80;1.00;;;;;;5056548;28;20547;-79
2023/06/12 13:11:26;;;;;;;72.87;7.10;;;31.20;1.00;;;;;;5056452;28;20415;-79
2023/06/12 13:13:52;;;;;;;72.40;7.00;;;30.80;1.00;;;;;;5056773;28;20411;-79
2023/06/12 13:16:19;;;;;;;73.80;6.00;;;30.80;1.00;;;;;;5037959;28;21043;-78
2023/06/12 13:18:44;;;;;;;70.77;6.50;;;31.10;1.00;;;;;;5038405;28;20180;-80
2023/06/12 13:21:11;;;;;;;71.40;6.27;;;31.10;1.00;;;;;;5055932;28;20395;-79
2023/06/12 13:23:36;;;;;;;72.30;9.47;;;31.00;1.00;;;;;;5056247;28;20244;-80
2023/06/12 13:26:02;;;;;;;73.63;5.80;;;31.40;1.00;;;;;;5038239;28;20918;-79
2023/06/12 13:28:28;;;;;;;72.53;6.70;;;31.30;1.00;;;;;;5056891;28;20263;-79
2023/06/12 13:30:57;;;;;;;71.17;6.20;;;31.50;1.00;;;;;;5038531;28;20594;-80
2023/06/12 13:33:23;;;;;;;72.77;7.37;;;31.10;1.00;;;;;;5055982;28;20408;-80
2023/06/12 13:35:48;;;;;;;71.30;7.23;;;30.70;1.00;;;;;;5056106;28;20443;-78
2023/06/12 13:38:14;;;;;;;70.70;5.60;;;30.30;1.00;;;;;;5056165;28;20184;-80
2023/06/12 13:40:40;;;;;;;73.50;7.20;;;29.90;1.00;;;;;;5038167;28;20552;-79
2023/06/12 13:43:06;;;;;;;72.30;6.00;;;29.60;1.00;;;;;;5055449;28;20486;-80
2023/06/12 13:45:33;;;;;;;72.70;7.00;;;29.50;1.00;;;;;;5055858;28;20528;-78
2023/06/12 13:48:00;;;;;;;74.40;6.80;;;29.30;1.00;;;;;;5055809;28;20251;-80
2023/06/12 13:50:27;;;;;;;74.40;6.57;;;29.70;1.00;;;;;;5055454;28;20414;-80
2023/06/12 13:52:52;;;;;;;73.07;6.87;;;30.10;1.00;;;;;;5055095;28;20407;-79
2023/06/12 13:55:18;;;;;;;73.40;9.53;;;30.60;1.00;;;;;;5055494;28;20508;-78
2023/06/12 13:57:45;;;;;;;73.60;10.60;;;30.60;1.00;;;;;;5055321;28;20612;-79
2023/06/12 14:00:11;;;;;;;73.17;10.43;;;30.40;1.00;;;;;;5056000;28;20528;-79
2023/06/12 14:02:36;;;;;;;74.13;10.00;;;30.30;1.00;;;;;;5037480;28;20902;-79
2023/06/12 14:05:03;;;;;;;78.10;10.23;;;29.90;1.00;;;;;;5055114;28;20405;-78
2023/06/12 14:07:30;;;;;;;73.30;8.90;;;30.00;1.00;;;;;;5037538;28;20537;-80
2023/06/12 14:09:56;;;;;;;73.00;9.13;;;30.10;1.00;;;;;;5055186;28;20405;-79